Time;durP1;ratioP1;P1;durP2;ratioP2;P2;SDS_P1;SDS_P2;PMS_P1;PMS_P2;Temp;Humidity;BMP_temperature;BMP_pressure;BME280_temperature;BME280_humidity;BME280_pressure;Samples;Min_cycle;Max_cycle;Signal;HPM_P1;HPM_P2
2021/03/01 00:00:48;;;;;;;10.68;5.75;;;0.00;99.90;;;;;;5093153;28;20071;-77
2021/03/01 00:03:19;;;;;;;9.32;5.88;;;0.00;99.90;;;;;;5093229;28;20048;-79
2021/03/01 00:05:50;;;;;;;12.77;6.03;;;-0.10;99.90;;;;;;5093014;28;20110;-78
2021/03/01 00:08:22;;;;;;;9.57;5.95;;;-0.10;99.90;;;;;;5092751;28;20057;-78
2021/03/01 00:10:53;;;;;;;10.63;6.38;;;-0.20;99.90;;;;;;5092878;28;20051;-77
2021/03/01 00:13:25;;;;;;;11.30;6.30;;;-0.20;99.90;;;;;;5108751;28;20040;-78
2021/03/01 00:15:57;;;;;;;10.52;5.78;;;-0.20;99.90;;;;;;5092910;28;20709;-77
2021/03/01 00:18:28;;;;;;;12.82;6.95;;;-0.30;99.90;;;;;;5092700;28;20044;-78
2021/03/01 00:20:59;;;;;;;9.07;5.32;;;-0.30;99.90;;;;;;5092751;28;20058;-78
2021/03/01 00:23:30;;;;;;;10.52;5.40;;;-0.40;99.90;;;;;;5093039;28;20048;-79
2021/03/01 00:26:02;;;;;;;9.45;5.97;;;-0.40;99.90;;;;;;5109038;28;20047;-78
2021/03/01 00:28:33;;;;;;;10.40;6.40;;;-0.40;99.90;;;;;;5108763;28;20736;-78
2021/03/01 00:31:04;;;;;;;10.43;5.88;;;-0.50;99.90;;;;;;5092994;28;20494;-78
2021/03/01 00:33:30;;;;;;;10.85;5.60;;;-0.50;99.90;;;;;;5108749;28;20138;-78
2021/03/01 00:36:01;;;;;;;14.75;6.60;;;-0.50;99.90;;;;;;5093244;28;20156;-78
2021/03/01 00:38:33;;;;;;;10.90;6.90;;;-0.50;99.90;;;;;;5092885;28;20150;-78
2021/03/01 00:40:59;;;;;;;13.10;6.28;;;-0.50;99.90;;;;;;5092419;28;20067;-77
2021/03/01 00:43:32;;;;;;;11.80;6.70;;;-0.60;99.90;;;;;;5093138;28;20046;-78
2021/03/01 00:46:03;;;;;;;13.98;6.65;;;-0.60;99.90;;;;;;5093170;28;20130;-78
2021/03/01 00:48:34;;;;;;;13.65;7.40;;;-0.60;99.90;;;;;;5108703;28;20128;-78
2021/03/01 00:51:06;;;;;;;10.85;6.88;;;-0.60;99.90;;;;;;5092650;28;20483;-77
2021/03/01 00:53:37;;;;;;;13.40;8.55;;;-0.70;99.90;;;;;;5093244;28;20039;-78
2021/03/01 00:56:08;;;;;;;13.45;7.15;;;-0.70;99.90;;;;;;5109363;28;20040;-78
2021/03/01 00:58:39;;;;;;;13.95;8.15;;;-0.80;99.90;;;;;;5092719;28;20042;-78
2021/03/01 01:01:11;;;;;;;13.25;7.70;;;-0.80;99.90;;;;;;5093312;28;20122;-77
2021/03/01 01:03:38;;;;;;;14.40;7.50;;;-0.90;99.90;;;;;;5092281;28;20039;-78
2021/03/01 01:06:12;;;;;;;12.93;8.65;;;-0.90;99.90;;;;;;5093092;28;20044;-78
2021/03/01 01:08:44;;;;;;;13.82;7.53;;;-0.90;99.90;;;;;;5093424;28;20046;-78
2021/03/01 01:11:15;;;;;;;14.82;8.80;;;-0.90;99.90;;;;;;5093550;28;20044;-78
2021/03/01 01:13:46;;;;;;;15.57;8.10;;;-0.90;99.90;;;;;;5093835;28;20490;-78
2021/03/01 01:16:18;;;;;;;15.88;8.40;;;-0.90;99.90;;;;;;5093558;28;20126;-78
2021/03/01 01:18:44;;;;;;;11.60;7.82;;;-0.90;99.90;;;;;;5109350;28;20046;-78
2021/03/01 01:21:10;;;;;;;17.27;8.73;;;-1.00;99.90;;;;;;5092917;28;20470;-78
2021/03/01 01:23:41;;;;;;;11.88;7.65;;;-1.00;99.90;;;;;;5093469;28;20139;-78
2021/03/01 01:26:13;;;;;;;12.65;7.68;;;-1.00;99.90;;;;;;5093485;28;20088;-78
2021/03/01 01:28:39;;;;;;;13.20;8.00;;;-1.00;99.90;;;;;;5109368;28;20039;-79
2021/03/01 01:31:10;;;;;;;15.43;8.75;;;-1.00;99.90;;;;;;5093950;28;20577;-78
2021/03/01 01:33:41;;;;;;;14.82;8.45;;;-1.00;99.90;;;;;;5093359;28;20043;-78
2021/03/01 01:36:13;;;;;;;14.30;7.93;;;-1.00;99.90;;;;;;5093397;28;20067;-79
2021/03/01 01:38:44;;;;;;;9.50;6.47;;;-1.00;99.90;;;;;;5093014;28;20039;-79
2021/03/01 01:41:16;;;;;;;19.75;8.07;;;-1.00;99.90;;;;;;5093183;28;20063;-78
2021/03/01 01:43:47;;;;;;;13.75;8.00;;;-1.00;99.90;;;;;;5093116;28;20043;-79
2021/03/01 01:46:18;;;;;;;12.25;6.90;;;-1.00;99.90;;;;;;5093364;28;20112;-79
2021/03/01 01:48:49;;;;;;;15.48;8.32;;;-1.00;99.90;;;;;;5093037;28;20035;-79
2021/03/01 01:51:16;;;;;;;12.27;8.30;;;-1.10;99.90;;;;;;5109319;28;20048;-78
2021/03/01 01:53:47;;;;;;;13.45;9.23;;;-1.10;99.90;;;;;;5093013;28;20036;-78
2021/03/01 01:56:18;;;;;;;12.85;8.50;;;-1.10;99.90;;;;;;5093217;28;20078;-78
2021/03/01 01:58:45;;;;;;;11.75;6.57;;;-1.10;99.90;;;;;;5091754;28;20039;-78
2021/03/01 02:01:11;;;;;;;12.15;7.13;;;-1.20;99.90;;;;;;5108965;28;20040;-78
2021/03/01 02:03:49;;;;;;;10.98;6.50;;;-1.20;99.90;;;;;;5095098;28;20486;-78
2021/03/01 02:06:47;;;;;;;10.95;7.53;;;-1.20;99.90;;;;;;5096788;28;20036;-79
2021/03/01 02:09:24;;;;;;;10.55;6.10;;;-1.20;99.90;;;;;;5096315;28;20044;-78
2021/03/01 02:12:31;;;;;;;12.13;6.70;;;-1.20;99.90;;;;;;5096646;28;20054;-78
2021/03/01 02:15:20;;;;;;;12.63;6.05;;;-1.20;99.90;;;;;;5096135;28;20043;-77
2021/03/01 02:17:52;;;;;;;10.85;5.65;;;-1.20;99.90;;;;;;5095960;28;20067;-78
2021/03/01 02:20:18;;;;;;;11.55;6.28;;;-1.30;99.90;;;;;;5112341;28;20049;-78
2021/03/01 02:22:49;;;;;;;11.25;6.20;;;-1.30;99.90;;;;;;5096094;28;20044;-79
2021/03/01 02:25:25;;;;;;;12.00;6.50;;;-1.30;99.90;;;;;;5096019;28;20516;-78
2021/03/01 02:28:03;;;;;;;10.88;6.40;;;-1.40;99.90;;;;;;5095409;28;20047;-78
2021/03/01 02:30:37;;;;;;;11.15;6.57;;;-1.40;99.90;;;;;;5096352;28;20130;-79
2021/03/01 02:33:12;;;;;;;11.80;6.47;;;-1.40;99.90;;;;;;5096201;28;20071;-78
2021/03/01 02:35:52;;;;;;;10.70;6.10;;;-1.40;99.90;;;;;;5095452;28;20054;-79
2021/03/01 02:38:24;;;;;;;14.48;6.82;;;-1.40;99.90;;;;;;5112164;28;20221;-79
2021/03/01 02:40:52;;;;;;;10.60;6.68;;;-1.40;99.90;;;;;;5112076;28;20048;-79
2021/03/01 02:43:27;;;;;;;7.97;4.63;;;-1.40;99.90;;;;;;5095961;28;20078;-78
2021/03/01 02:45:54;;;;;;;11.02;7.00;;;-1.40;99.90;;;;;;5112276;28;20146;-78
2021/03/01 02:48:27;;;;;;;15.82;6.30;;;-1.40;99.90;;;;;;5091196;28;20558;-78
2021/03/01 02:50:59;;;;;;;9.93;6.38;;;-1.40;99.90;;;;;;5091947;28;20044;-79
2021/03/01 02:53:32;;;;;;;9.63;6.43;;;-1.40;99.90;;;;;;5091645;28;20119;-78
2021/03/01 02:56:04;;;;;;;7.30;4.50;;;-1.40;99.90;;;;;;5091670;28;20062;-78
2021/03/01 02:58:38;;;;;;;9.95;6.07;;;-1.40;99.90;;;;;;5091185;28;20083;-79
2021/03/01 03:01:11;;;;;;;10.38;6.70;;;-1.50;99.90;;;;;;5091400;28;20365;-78
2021/03/01 03:03:47;;;;;;;10.75;5.75;;;-1.50;99.90;;;;;;5091583;28;20068;-79
2021/03/01 03:06:21;;;;;;;12.07;6.93;;;-1.60;99.90;;;;;;5092071;28;20048;-78
2021/03/01 03:08:54;;;;;;;10.18;6.50;;;-1.60;99.90;;;;;;5090940;28;20064;-79
2021/03/01 03:11:27;;;;;;;12.43;5.83;;;-1.60;99.90;;;;;;5075122;28;20051;-78
2021/03/01 03:13:56;;;;;;;10.57;6.53;;;-1.60;99.90;;;;;;5074180;28;20105;-78
2021/03/01 03:16:25;;;;;;;12.57;6.10;;;-1.60;99.90;;;;;;5091252;28;20044;-79
2021/03/01 03:18:57;;;;;;;11.57;5.88;;;-1.60;99.90;;;;;;5090751;28;20040;-79
2021/03/01 03:21:28;;;;;;;10.45;5.95;;;-1.70;99.90;;;;;;5075153;28;20275;-78
2021/03/01 03:24:04;;;;;;;11.43;6.18;;;-1.70;99.90;;;;;;5090943;28;20071;-79
2021/03/01 03:26:36;;;;;;;12.05;6.88;;;-1.70;99.90;;;;;;5075105;28;20040;-78
2021/03/01 03:29:08;;;;;;;12.02;6.47;;;-1.70;99.90;;;;;;5090685;28;20036;-79
2021/03/01 03:31:39;;;;;;;10.50;6.88;;;-1.70;99.90;;;;;;5090798;28;20044;-78
2021/03/01 03:34:10;;;;;;;11.05;6.07;;;-1.70;99.90;;;;;;5090745;28;20048;-78
2021/03/01 03:36:53;;;;;;;12.60;6.55;;;-1.70;99.90;;;;;;5074758;28;20048;-78
2021/03/01 03:39:25;;;;;;;12.88;6.07;;;-1.80;99.90;;;;;;5090523;28;20051;-78
2021/03/01 03:41:57;;;;;;;16.83;6.78;;;-1.80;99.90;;;;;;5074588;28;20047;-78
2021/03/01 03:44:32;;;;;;;11.98;7.18;;;-1.80;99.90;;;;;;5090603;28;20498;-78
2021/03/01 03:47:07;;;;;;;10.57;6.65;;;-1.80;99.90;;;;;;5090514;28;20040;-79
2021/03/01 03:49:39;;;;;;;12.18;6.35;;;-1.90;99.90;;;;;;5105614;28;20129;-79
2021/03/01 03:52:14;;;;;;;13.20;6.97;;;-1.90;99.90;;;;;;5094619;28;20035;-78
2021/03/01 03:54:43;;;;;;;14.05;6.95;;;-1.90;99.90;;;;;;5110849;28;20044;-78
2021/03/01 03:57:16;;;;;;;13.70;6.95;;;-1.90;99.90;;;;;;5110811;28;20050;-78
2021/03/01 03:59:50;;;;;;;11.15;6.43;;;-1.90;99.90;;;;;;5093878;28;20100;-78
2021/03/01 04:02:22;;;;;;;;;;;-2.00;99.90;;;;;;5112506;28;20224;-78
2021/03/01 04:04:50;;;;;;;13.05;6.07;;;-2.00;99.90;;;;;;5093735;28;20344;-79
2021/03/01 04:07:18;;;;;;;10.45;6.30;;;-2.00;99.90;;;;;;5110678;28;20047;-78
2021/03/01 04:09:46;;;;;;;13.68;6.72;;;-2.00;99.90;;;;;;5109939;28;20100;-78
2021/03/01 04:12:19;;;;;;;12.18;6.75;;;-2.00;99.90;;;;;;5094292;28;20054;-78
2021/03/01 04:14:50;;;;;;;13.17;7.27;;;-2.00;99.90;;;;;;5094271;28;20045;-78
2021/03/01 04:17:22;;;;;;;11.80;7.43;;;-2.00;99.90;;;;;;5094377;28;20282;-79
2021/03/01 04:19:56;;;;;;;12.00;7.85;;;-2.00;99.90;;;;;;5094133;28;20112;-78
2021/03/01 04:22:28;;;;;;;;;;;-2.00;99.90;;;;;;5094443;28;20044;-78
2021/03/01 04:25:00;;;;;;;11.40;6.82;;;-2.00;99.90;;;;;;5093953;28;19966;-79
2021/03/01 04:27:33;;;;;;;13.88;7.07;;;-2.00;99.90;;;;;;5093525;28;20036;-79
2021/03/01 04:30:10;;;;;;;15.10;7.80;;;-2.00;99.90;;;;;;5094468;28;20071;-80
2021/03/01 04:32:46;;;;;;;12.32;6.97;;;-2.10;99.90;;;;;;5094313;28;20053;-78
2021/03/01 04:35:19;;;;;;;13.23;7.95;;;-2.10;99.90;;;;;;5110364;28;20498;-79
2021/03/01 04:37:50;;;;;;;12.73;6.90;;;-2.10;99.90;;;;;;5093722;28;20047;-78
2021/03/01 04:40:17;;;;;;;16.00;6.95;;;-2.10;99.90;;;;;;5110242;28;20077;-78
2021/03/01 04:42:49;;;;;;;11.27;6.85;;;-2.20;99.90;;;;;;5093959;28;20048;-78
2021/03/01 04:45:21;;;;;;;11.70;7.50;;;-2.20;99.90;;;;;;5110244;28;20113;-79
2021/03/01 04:47:52;;;;;;;11.88;7.68;;;-2.20;99.90;;;;;;5109567;28;20044;-78
2021/03/01 04:50:20;;;;;;;12.20;7.47;;;-2.20;99.90;;;;;;5110231;28;20085;-78
2021/03/01 04:52:51;;;;;;;13.65;6.82;;;-1.70;99.90;;;;;;5093768;28;20039;-78
2021/03/01 04:55:18;;;;;;;16.67;8.15;;;-1.10;99.90;;;;;;5110153;28;20422;-78
2021/03/01 04:57:53;;;;;;;13.77;8.25;;;-1.10;99.90;;;;;;5109577;28;20047;-78
2021/03/01 05:00:25;;;;;;;12.30;7.10;;;-1.20;99.90;;;;;;5093566;28;20077;-78
2021/03/01 05:02:58;;;;;;;12.48;6.95;;;-1.30;99.90;;;;;;5093728;28;20482;-79
2021/03/01 05:05:29;;;;;;;17.75;6.97;;;-1.50;99.90;;;;;;5109866;28;20058;-78
2021/03/01 05:08:10;;;;;;;17.33;8.15;;;-1.60;99.90;;;;;;5109362;28;20043;-79
2021/03/01 05:10:42;;;;;;;19.05;9.85;;;-1.70;99.90;;;;;;5109644;28;20578;-78
2021/03/01 05:13:14;;;;;;;20.20;11.13;;;-1.80;99.90;;;;;;5109535;28;20506;-78
2021/03/01 05:15:45;;;;;;;16.90;10.23;;;-1.90;99.90;;;;;;5093470;28;20063;-79
2021/03/01 05:18:18;;;;;;;21.67;10.07;;;-2.00;99.90;;;;;;5093034;28;20058;-79
2021/03/01 05:20:49;;;;;;;15.60;8.40;;;-2.00;99.90;;;;;;5093310;28;20082;-78
2021/03/01 05:23:21;;;;;;;14.65;9.13;;;-2.10;99.90;;;;;;5093183;28;20044;-79
2021/03/01 05:25:52;;;;;;;15.57;8.65;;;-2.10;99.90;;;;;;5093477;28;20402;-78
2021/03/01 05:28:23;;;;;;;17.75;9.02;;;-2.20;99.90;;;;;;5109182;28;20040;-79
2021/03/01 05:30:54;;;;;;;15.65;10.55;;;-2.20;99.90;;;;;;5093098;28;20096;-79
2021/03/01 05:33:26;;;;;;;23.02;10.73;;;-2.20;99.90;;;;;;5093536;28;20050;-78
2021/03/01 05:35:57;;;;;;;17.40;9.55;;;-2.30;99.90;;;;;;5093467;28;20116;-78
2021/03/01 05:38:24;;;;;;;18.33;10.18;;;-2.30;99.90;;;;;;5112382;28;20436;-78
2021/03/01 05:40:56;;;;;;;22.90;9.40;;;-2.40;99.90;;;;;;5113501;28;20067;-78
2021/03/01 05:43:29;;;;;;;20.33;9.93;;;-2.40;99.90;;;;;;5096619;28;20054;-78
2021/03/01 05:46:00;;;;;;;16.80;10.07;;;-2.40;99.90;;;;;;5097019;28;20459;-78
2021/03/01 05:48:32;;;;;;;17.92;9.50;;;-2.40;99.90;;;;;;5092705;28;20036;-79
2021/03/01 05:51:01;;;;;;;18.00;10.68;;;-2.40;99.90;;;;;;5109792;28;20040;-78
2021/03/01 05:53:37;;;;;;;18.38;10.57;;;-2.40;99.90;;;;;;5109952;28;20048;-78
2021/03/01 05:56:04;;;;;;;21.33;11.98;;;-2.40;99.90;;;;;;5109734;28;20100;-80
2021/03/01 05:58:36;;;;;;;19.83;11.13;;;-2.40;99.90;;;;;;5108417;28;20058;-79
2021/03/01 06:01:07;;;;;;;18.85;11.30;;;-2.40;99.90;;;;;;5108791;28;20160;-78
2021/03/01 06:03:38;;;;;;;16.33;10.60;;;-2.40;99.90;;;;;;5108764;28;20048;-78
2021/03/01 06:06:05;;;;;;;23.73;10.55;;;-2.40;99.90;;;;;;5111568;27;20482;-78
2021/03/01 06:08:32;;;;;;;19.48;10.10;;;-2.40;99.90;;;;;;5097563;28;20043;-80
2021/03/01 06:11:05;;;;;;;18.38;9.55;;;-2.40;99.90;;;;;;5122809;27;20046;-81
2021/03/01 06:13:35;;;;;;;19.25;11.13;;;-2.40;99.90;;;;;;5119599;27;20043;-81
2021/03/01 06:16:04;;;;;;;19.27;10.32;;;-2.40;99.90;;;;;;5122358;27;20071;-82
2021/03/01 06:21:32;;;;;;;16.40;8.98;;;-2.40;99.90;;;;;;5203339;23;20058;-81
2021/03/01 06:24:12;;;;;;;19.75;9.18;;;-2.40;99.90;;;;;;4903938;29;20111;-81
2021/03/01 06:26:45;;;;;;;17.10;9.63;;;-2.40;99.90;;;;;;4919495;29;20419;-82
2021/03/01 07:43:51;;;;;;;21.13;11.18;;;-1.30;99.90;;;;;;6000347;23;20029;-80
2021/03/01 07:46:32;;;;;;;16.00;10.18;;;-1.20;99.90;;;;;;4924945;29;20062;-81
2021/03/01 07:48:59;;;;;;;15.68;9.82;;;-1.10;99.90;;;;;;4985530;23;20079;-79
2021/03/01 07:51:48;;;;;;;18.95;11.05;;;-1.00;99.90;;;;;;4940745;29;20048;-81
2021/03/01 07:54:16;;;;;;;28.17;14.93;;;-0.90;99.90;;;;;;4940323;29;20082;-80
2021/03/01 07:56:50;;;;;;;30.83;18.35;;;-0.80;99.90;;;;;;4955332;29;20047;-79
2021/03/01 07:59:20;;;;;;;;;;;-0.70;99.90;;;;;;4956780;28;20054;-80
2021/03/01 08:02:09;;;;;;;21.50;12.52;;;-0.60;99.90;;;;;;4954055;28;19922;-80
2021/03/01 08:04:41;;;;;;;17.02;11.60;;;-0.50;99.90;;;;;;4939712;29;20043;-80
2021/03/01 08:07:12;;;;;;;18.15;10.25;;;-0.40;99.90;;;;;;4939873;29;20409;-81
2021/03/01 08:15:38;;;;;;;23.08;11.40;;;-0.30;99.90;;;;;;5506900;23;20102;-80
2021/03/01 08:36:22;;;;;;;18.70;10.95;;;0.60;99.90;;;;;;5255053;23;20138;-80
2021/03/01 09:19:51;;;;;;;14.25;8.57;;;3.20;99.90;;;;;;5265048;23;20056;-80
2021/03/01 09:22:17;;;;;;;13.60;8.63;;;3.40;99.90;;;;;;4919281;29;20047;-80
2021/03/01 09:24:44;;;;;;;13.88;8.77;;;3.60;99.90;;;;;;4919335;29;20090;-79
2021/03/01 09:33:06;;;;;;;16.08;8.77;;;4.00;99.90;;;;;;5002546;23;20098;-79
2021/03/01 09:35:35;;;;;;;14.68;8.75;;;4.20;99.90;;;;;;4900454;29;20048;-79
2021/03/01 09:38:09;;;;;;;14.02;8.80;;;4.30;99.90;;;;;;4901085;29;20099;-80
2021/03/01 09:40:41;;;;;;;15.43;9.23;;;4.40;99.90;;;;;;4900817;29;20052;-80
2021/03/01 09:43:12;;;;;;;15.73;8.88;;;4.50;99.90;;;;;;4915877;29;20045;-80
2021/03/01 09:45:39;;;;;;;15.52;9.82;;;4.70;99.90;;;;;;4900194;29;20049;-79
2021/03/01 10:07:15;;;;;;;11.90;7.80;;;5.50;99.90;;;;;;5907396;23;20028;-78
2021/03/01 10:09:42;;;;;;;11.75;7.95;;;5.60;99.90;;;;;;4898840;29;20056;-78
2021/03/01 10:12:10;;;;;;;10.90;7.00;;;5.80;99.90;;;;;;4898035;29;20052;-79
2021/03/01 10:14:42;;;;;;;10.23;7.38;;;5.90;99.90;;;;;;4899812;29;20393;-80
2021/03/01 10:17:25;;;;;;;10.85;7.05;;;6.00;99.90;;;;;;4899674;29;20539;-80
2021/03/01 10:20:13;;;;;;;9.20;6.07;;;6.10;99.90;;;;;;4900067;29;20124;-80
2021/03/01 10:23:03;;;;;;;11.25;5.97;;;6.30;99.90;;;;;;4899684;29;20040;-80
2021/03/01 10:25:42;;;;;;;11.88;6.43;;;6.40;99.90;;;;;;4917886;29;20496;-80
2021/03/01 10:28:25;;;;;;;8.88;6.18;;;6.60;99.90;;;;;;4919386;29;20044;-80
2021/03/01 10:31:07;;;;;;;8.85;5.80;;;6.70;99.90;;;;;;4907303;29;20059;-80
2021/03/01 10:34:03;;;;;;;9.77;5.82;;;6.80;99.90;;;;;;4918133;29;20056;-80
2021/03/01 10:36:39;;;;;;;8.80;6.13;;;6.90;99.90;;;;;;4903296;29;20104;-80
2021/03/01 10:39:25;;;;;;;10.57;6.07;;;7.10;99.90;;;;;;4902962;29;20048;-80
2021/03/01 10:41:54;;;;;;;8.55;5.50;;;7.20;99.90;;;;;;4918544;29;20056;-79
2021/03/01 10:44:30;;;;;;;10.23;5.65;;;7.20;98.10;;;;;;4903463;29;20070;-80
2021/03/01 10:47:23;;;;;;;10.15;6.38;;;7.40;96.40;;;;;;4918340;29;20036;-80
2021/03/01 10:49:59;;;;;;;9.00;6.43;;;7.50;97.30;;;;;;4903598;29;20051;-80
2021/03/01 10:52:28;;;;;;;8.75;5.45;;;7.60;96.20;;;;;;4903599;29;20054;-82
2021/03/01 10:55:01;;;;;;;9.65;5.60;;;7.70;95.70;;;;;;4903056;29;20048;-82
2021/03/01 10:57:33;;;;;;;9.13;5.88;;;7.80;94.40;;;;;;4903695;29;20142;-79
2021/03/01 11:00:00;;;;;;;8.60;6.05;;;7.90;94.10;;;;;;4904326;29;20056;-80
2021/03/01 11:02:29;;;;;;;8.73;5.80;;;7.90;93.80;;;;;;4918912;29;20054;-80
2021/03/01 11:05:01;;;;;;;11.73;6.72;;;8.10;93.50;;;;;;4903647;29;20059;-80
2021/03/01 11:07:33;;;;;;;8.20;5.85;;;8.10;93.70;;;;;;4917795;29;20044;-79
2021/03/01 11:10:06;;;;;;;11.18;6.65;;;8.20;92.00;;;;;;4903041;29;20044;-79
2021/03/01 11:12:33;;;;;;;12.25;7.07;;;8.30;91.60;;;;;;4917844;29;20055;-80
2021/03/01 11:15:05;;;;;;;13.48;8.00;;;8.40;90.60;;;;;;4917483;29;20040;-80
2021/03/01 11:17:37;;;;;;;24.17;11.95;;;8.50;91.20;;;;;;4917687;29;20522;-80
2021/03/01 11:20:09;;;;;;;21.63;10.82;;;8.60;90.00;;;;;;4902641;29;20056;-80
2021/03/01 11:22:35;;;;;;;15.27;7.78;;;8.70;88.20;;;;;;4917613;29;20055;-80
2021/03/01 11:25:08;;;;;;;8.02;5.50;;;8.80;84.50;;;;;;4917425;29;20468;-80
2021/03/01 11:27:35;;;;;;;8.70;5.95;;;8.90;85.00;;;;;;4901586;29;20052;-80
2021/03/01 11:30:02;;;;;;;8.25;6.22;;;9.00;83.40;;;;;;4917305;29;20397;-79
2021/03/01 11:32:29;;;;;;;9.88;5.70;;;9.10;80.80;;;;;;4901790;29;20447;-80
2021/03/01 11:35:01;;;;;;;8.60;5.50;;;9.20;79.30;;;;;;4902245;29;20056;-80
2021/03/01 11:37:28;;;;;;;11.77;6.97;;;9.30;77.20;;;;;;4917190;29;20055;-80
2021/03/01 11:39:59;;;;;;;9.75;6.53;;;9.30;76.00;;;;;;4902960;29;20044;-80
2021/03/01 11:42:26;;;;;;;8.50;5.63;;;9.40;76.70;;;;;;4902191;29;20051;-80
2021/03/01 11:44:58;;;;;;;9.15;5.68;;;9.50;76.00;;;;;;4917157;29;20075;-80
2021/03/01 11:47:26;;;;;;;12.90;8.52;;;9.60;73.80;;;;;;4901792;29;20099;-80
2021/03/01 11:49:58;;;;;;;9.65;6.53;;;9.70;73.30;;;;;;4902230;29;20080;-80
2021/03/01 11:52:29;;;;;;;6.35;4.55;;;9.80;72.10;;;;;;4917129;29;20471;-80
2021/03/01 11:55:01;;;;;;;7.80;4.78;;;9.80;72.40;;;;;;4902006;29;20052;-80
2021/03/01 11:57:33;;;;;;;8.75;5.45;;;9.80;70.70;;;;;;4916780;29;20068;-80
2021/03/01 12:00:08;;;;;;;5.80;4.80;;;9.90;71.10;;;;;;4916624;29;20048;-80
2021/03/01 12:02:39;;;;;;;8.90;5.57;;;10.00;69.70;;;;;;4918665;29;20408;-80
2021/03/01 12:05:07;;;;;;;7.53;5.68;;;10.10;70.90;;;;;;4903072;29;20040;-80
2021/03/01 12:07:39;;;;;;;8.75;5.55;;;10.20;71.10;;;;;;4917303;29;20047;-80
2021/03/01 12:10:06;;;;;;;7.55;5.85;;;10.30;69.60;;;;;;4907668;29;20587;-79
2021/03/01 12:12:33;;;;;;;7.80;5.25;;;10.40;67.60;;;;;;4904321;29;20554;-80
2021/03/01 12:15:00;;;;;;;9.55;5.78;;;10.40;68.00;;;;;;4900729;29;20052;-79
2021/03/01 12:17:30;;;;;;;8.93;5.70;;;10.50;67.60;;;;;;4903939;29;20056;-80
2021/03/01 12:19:57;;;;;;;9.10;5.50;;;10.60;67.50;;;;;;4903551;29;20048;-78
2021/03/01 12:22:28;;;;;;;7.90;5.20;;;10.70;66.10;;;;;;4897729;29;20048;-78
2021/03/01 12:25:00;;;;;;;7.07;4.78;;;10.80;66.10;;;;;;4897642;29;20044;-78
2021/03/01 12:27:32;;;;;;;7.05;5.05;;;10.90;64.80;;;;;;4897442;29;20149;-78
2021/03/01 12:30:06;;;;;;;7.80;4.55;;;11.00;65.60;;;;;;4912429;29;20143;-78
2021/03/01 12:32:37;;;;;;;;;;;11.10;64.00;;;;;;4898184;29;20147;-80
2021/03/01 12:35:10;;;;;;;17.48;10.60;;;11.10;62.20;;;;;;4897551;29;19973;-81
2021/03/01 12:37:41;;;;;;;8.52;5.53;;;11.20;61.20;;;;;;4912276;29;20084;-81
2021/03/01 12:40:13;;;;;;;11.48;7.63;;;11.30;62.90;;;;;;4897133;29;20419;-81
2021/03/01 12:42:39;;;;;;;9.13;5.60;;;11.40;60.50;;;;;;4896484;29;20071;-81
2021/03/01 12:45:06;;;;;;;7.47;5.40;;;11.40;59.60;;;;;;4896759;29;20512;-81
2021/03/01 12:47:37;;;;;;;8.10;4.78;;;11.50;59.30;;;;;;4896929;29;20229;-81
2021/03/01 12:50:09;;;;;;;7.05;4.82;;;11.60;58.30;;;;;;4912007;29;20044;-81
2021/03/01 12:52:41;;;;;;;7.82;5.20;;;11.60;58.80;;;;;;4912308;29;20107;-81
2021/03/01 12:55:12;;;;;;;8.70;6.53;;;11.60;58.20;;;;;;4912282;29;20143;-81
2021/03/01 12:57:44;;;;;;;8.18;5.38;;;11.70;59.00;;;;;;4896905;29;20048;-81
2021/03/01 13:00:16;;;;;;;8.60;5.95;;;11.70;58.70;;;;;;4912440;29;20481;-81
2021/03/01 13:02:47;;;;;;;6.93;4.85;;;11.80;57.40;;;;;;4898664;29;20131;-81
2021/03/01 13:05:19;;;;;;;8.70;5.13;;;11.90;57.00;;;;;;4913286;29;20044;-81
2021/03/01 13:07:50;;;;;;;7.45;4.55;;;11.90;58.00;;;;;;4898477;29;20044;-79
2021/03/01 13:10:16;;;;;;;16.75;10.20;;;12.00;55.20;;;;;;4913518;29;20508;-79
2021/03/01 13:12:48;;;;;;;13.68;8.63;;;12.00;55.10;;;;;;4899543;29;20095;-80
2021/03/01 13:15:19;;;;;;;11.40;6.47;;;12.00;56.40;;;;;;4915638;29;20054;-80
2021/03/01 13:17:51;;;;;;;7.53;5.47;;;12.00;55.50;;;;;;4900441;29;20052;-80
2021/03/01 13:20:22;;;;;;;8.48;5.22;;;12.10;56.60;;;;;;4915450;29;20076;-80
2021/03/01 13:22:54;;;;;;;9.25;5.22;;;12.10;56.70;;;;;;4900615;29;20182;-80
2021/03/01 13:25:25;;;;;;;9.05;4.78;;;12.20;56.10;;;;;;4900542;29;20052;-80
2021/03/01 13:27:56;;;;;;;7.32;5.45;;;12.20;57.20;;;;;;4900542;29;20040;-80
2021/03/01 13:30:23;;;;;;;7.40;5.28;;;12.20;57.30;;;;;;4915681;29;20075;-80
2021/03/01 13:32:54;;;;;;;7.75;4.80;;;12.20;55.90;;;;;;4915454;29;20139;-80
2021/03/01 13:35:25;;;;;;;8.07;5.50;;;12.30;56.70;;;;;;4900621;29;20072;-80
2021/03/01 13:37:57;;;;;;;10.40;5.50;;;12.30;56.70;;;;;;4915468;29;20044;-79
2021/03/01 13:40:29;;;;;;;8.43;5.13;;;12.30;57.30;;;;;;4900362;29;20096;-80
2021/03/01 13:43:01;;;;;;;6.65;4.85;;;12.40;55.90;;;;;;4915288;29;20074;-80
2021/03/01 13:45:33;;;;;;;12.60;5.35;;;12.50;55.80;;;;;;4900636;29;20404;-80
2021/03/01 13:48:00;;;;;;;8.48;4.93;;;12.50;55.90;;;;;;4899705;29;20044;-80
2021/03/01 13:50:32;;;;;;;7.97;4.43;;;12.50;56.10;;;;;;4900538;29;20055;-80
2021/03/01 13:53:04;;;;;;;7.90;5.10;;;12.50;56.20;;;;;;4900438;29;20071;-80
2021/03/01 13:55:53;;;;;;;6.82;4.90;;;12.60;54.80;;;;;;4915326;29;20056;-80
2021/03/01 13:58:20;;;;;;;7.57;4.82;;;12.60;55.20;;;;;;4899918;29;20052;-80
2021/03/01 14:00:52;;;;;;;9.57;5.55;;;12.60;54.60;;;;;;4903982;29;20056;-80
2021/03/01 14:03:28;;;;;;;6.43;4.70;;;12.60;55.90;;;;;;4918695;29;20051;-80
2021/03/01 14:06:00;;;;;;;7.20;5.53;;;12.60;56.20;;;;;;4918957;29;20051;-80
2021/03/01 14:08:32;;;;;;;6.82;4.78;;;12.70;55.70;;;;;;4903728;29;20072;-81
2021/03/01 14:10:58;;;;;;;6.70;4.43;;;12.70;54.00;;;;;;4902911;29;20063;-80
2021/03/01 14:13:30;;;;;;;8.10;4.55;;;12.70;54.30;;;;;;4918467;29;20084;-79
2021/03/01 14:15:57;;;;;;;15.55;10.05;;;12.60;54.70;;;;;;4902786;29;20430;-80
2021/03/01 14:18:24;;;;;;;13.13;7.93;;;12.70;55.00;;;;;;4902603;29;20048;-80
2021/03/01 14:20:56;;;;;;;41.95;23.45;;;12.80;55.70;;;;;;4903393;29;20122;-80
2021/03/01 14:23:27;;;;;;;17.73;11.07;;;12.80;55.00;;;;;;4903392;29;20412;-80
2021/03/01 14:25:59;;;;;;;9.90;5.97;;;12.90;55.20;;;;;;4918256;29;20040;-80
2021/03/01 14:28:31;;;;;;;7.57;5.22;;;13.00;54.80;;;;;;4903270;29;20460;-80
2021/03/01 14:30:58;;;;;;;7.07;4.90;;;13.00;54.40;;;;;;4902402;29;20189;-80
2021/03/01 14:33:30;;;;;;;6.93;4.97;;;12.90;53.70;;;;;;4903125;29;20079;-80
2021/03/01 14:36:02;;;;;;;8.43;5.82;;;12.90;53.80;;;;;;4917888;29;20048;-79
2021/03/01 14:38:29;;;;;;;9.05;6.47;;;13.00;54.50;;;;;;4902142;29;20052;-80
2021/03/01 14:41:01;;;;;;;8.43;5.63;;;13.00;54.50;;;;;;4917940;29;20048;-80
2021/03/01 14:43:29;;;;;;;9.40;6.25;;;13.00;54.70;;;;;;4917801;29;20044;-80
2021/03/01 14:46:02;;;;;;;10.55;6.45;;;13.10;54.50;;;;;;4902870;29;20048;-79
2021/03/01 14:48:29;;;;;;;8.32;5.80;;;13.10;54.50;;;;;;4901849;29;20044;-80
2021/03/01 14:50:56;;;;;;;9.98;6.85;;;13.20;54.40;;;;;;4917748;29;20096;-80
2021/03/01 14:53:29;;;;;;;9.85;5.88;;;13.30;55.50;;;;;;4917674;29;20148;-79
2021/03/01 14:56:01;;;;;;;8.73;5.53;;;13.40;55.10;;;;;;4902547;29;20095;-80
2021/03/01 14:58:32;;;;;;;9.23;5.80;;;13.40;54.40;;;;;;4902183;29;20099;-80
2021/03/01 15:01:04;;;;;;;10.10;6.40;;;13.50;53.80;;;;;;4901672;29;20079;-79
2021/03/01 15:03:35;;;;;;;7.57;5.35;;;13.50;54.10;;;;;;4916481;29;20052;-79
2021/03/01 15:06:07;;;;;;;7.05;5.15;;;13.60;55.10;;;;;;4916624;29;20671;-78
2021/03/01 15:08:38;;;;;;;8.43;5.53;;;13.60;55.20;;;;;;4913280;29;20087;-78
2021/03/01 15:11:09;;;;;;;8.02;5.28;;;13.60;55.40;;;;;;4902761;29;20043;-78
2021/03/01 15:13:41;;;;;;;8.30;5.45;;;13.50;55.50;;;;;;4932176;29;20058;-78
2021/03/01 15:16:12;;;;;;;7.57;4.80;;;13.40;55.70;;;;;;4898618;29;20044;-78
2021/03/01 15:18:43;;;;;;;8.50;5.13;;;13.40;56.40;;;;;;4900384;29;20090;-78
2021/03/01 15:21:15;;;;;;;7.75;4.88;;;13.50;56.40;;;;;;4899464;29;20052;-78
2021/03/01 15:23:46;;;;;;;11.57;6.75;;;13.60;56.30;;;;;;4902626;29;20040;-81
2021/03/01 15:26:17;;;;;;;15.18;8.32;;;13.70;55.90;;;;;;4908240;29;20071;-80
2021/03/01 15:28:49;;;;;;;15.52;9.88;;;13.80;55.50;;;;;;4918678;29;20186;-81
2021/03/01 15:31:16;;;;;;;40.97;18.73;;;13.90;55.10;;;;;;4902461;29;20043;-81
2021/03/01 15:33:48;;;;;;;44.80;20.67;;;14.20;54.10;;;;;;4919180;29;20060;-81
2021/03/01 15:36:19;;;;;;;45.15;17.20;;;14.50;54.30;;;;;;4903480;29;20059;-81
2021/03/01 15:38:51;;;;;;;13.68;7.53;;;14.80;53.80;;;;;;4918398;29;20139;-81
2021/03/01 15:41:25;;;;;;;11.57;7.47;;;15.20;52.20;;;;;;4903928;29;20147;-81
2021/03/01 15:43:57;;;;;;;;;;;15.60;51.70;;;;;;4903313;29;20040;-81
2021/03/01 15:46:23;;;;;;;8.73;5.55;;;16.00;49.90;;;;;;4917278;29;19975;-81
2021/03/01 15:48:54;;;;;;;7.82;4.80;;;16.40;49.40;;;;;;4901982;29;20111;-81
2021/03/01 15:51:26;;;;;;;8.82;5.60;;;16.70;49.20;;;;;;4902909;29;20420;-81
2021/03/01 15:53:53;;;;;;;8.02;5.80;;;17.00;47.70;;;;;;4902625;29;20486;-81